Olga, Washington
Current Conditions -  °F | °C
As of 4:15 AM on Monday 20 Oct 2014 (Local Time) from KORS Reporting Station
Broken Clouds Broken Clouds  
Wind Chill: 14°   Ceiling: 1500
Heat Index: 14°   Visibility: 10mi
Dew Point: 13°   Wind: 10mph
Humidity: 94%   Direction: 190°S
Pressure: 29.63"   Gusts: NA
Location:  48.62°N, 122.83°W
Report Text: KORS 201115Z AUTO 19009KT 10SM BKN015 14/13 A2963 RMK AO2
Loading
Personal Weather Stations






























Interactive Weather Map
Tropical Storm Tracking
New forecast layout! Learn more

10-Day Weather Forecast

Advertisements
Track Severe Weather on mobile